Time;durP1;ratioP1;P1;durP2;ratioP2;P2;SDS_P1;SDS_P2;PMS_P1;PMS_P2;Temp;Humidity;BMP_temperature;BMP_pressure;BME280_temperature;BME280_humidity;BME280_pressure;Samples;Min_cycle;Max_cycle;Signal;HPM_P1;HPM_P2
2021/12/16 00:01:52;;;;;;;15.68;4.32;;;;;;;7.52;86.95;102481.75;4810308;29;20096;-69
2021/12/16 00:08:33;;;;;;;7.95;3.53;;;;;;;7.54;87.40;102485.22;4810532;29;19963;-68
2021/12/16 00:34:49;;;;;;;8.30;4.07;;;;;;;7.37;88.38;102495.78;4798837;29;20061;-68
2021/12/16 00:37:53;;;;;;;12.65;4.32;;;;;;;7.32;88.49;102501.88;4810177;29;20050;-68
2021/12/16 00:40:59;;;;;;;13.40;4.22;;;;;;;7.43;88.01;102497.44;4809295;29;20645;-69
2021/12/16 00:44:14;;;;;;;8.15;3.88;;;;;;;7.39;87.95;102498.34;4799026;29;20077;-69
2021/12/16 00:57:07;;;;;;;15.75;4.05;;;;;;;7.45;87.84;102503.50;4796340;29;20085;-68
2021/12/16 01:00:15;;;;;;;14.35;4.05;;;;;;;7.41;87.71;102507.03;4795353;29;20058;-69
2021/12/16 01:06:42;;;;;;;;;;;;;;;7.44;87.88;102504.41;4807673;29;20062;-68
2021/12/16 01:53:12;;;;;;;7.38;3.70;;;;;;;7.25;88.41;102515.81;4795465;29;20050;-69
2021/12/16 01:56:38;;;;;;;7.50;3.17;;;;;;;7.38;87.90;102520.06;4795142;29;20053;-69
2021/12/16 01:59:47;;;;;;;12.23;4.00;;;;;;;7.45;87.67;102519.13;4777133;30;20058;-68
2021/12/16 02:02:51;;;;;;;6.40;3.75;;;;;;;7.51;87.23;102513.88;4776661;30;20154;-69
2021/12/16 02:06:12;;;;;;;8.80;3.72;;;;;;;7.33;87.66;102511.41;4777046;30;20182;-69
2021/12/16 02:09:32;;;;;;;9.90;4.32;;;;;;;7.23;88.36;102514.06;4787957;29;20077;-69
2021/12/16 02:32:54;;;;;;;6.45;3.03;;;;;;;7.20;88.06;102519.28;4794351;29;20085;-68
2021/12/16 02:36:13;;;;;;;6.28;2.92;;;;;;;7.35;87.59;102517.47;4794523;29;20103;-68
2021/12/16 02:39:30;;;;;;;14.93;3.83;;;;;;;7.25;87.95;102515.81;4794437;29;20521;-69
2021/12/16 02:42:54;;;;;;;7.60;2.97;;;;;;;7.14;88.20;102521.94;4794278;29;20532;-69
2021/12/16 02:49:19;;;;;;;9.43;3.58;;;;;;;7.35;87.77;102514.88;4794224;29;19966;-68
2021/12/16 02:52:25;;;;;;;10.68;3.67;;;;;;;7.37;87.45;102520.91;4805405;29;20057;-69
2021/12/16 02:55:28;;;;;;;11.35;4.10;;;;;;;7.40;87.44;102518.28;4794240;29;20054;-69
2021/12/16 02:58:35;;;;;;;8.35;3.70;;;;;;;7.29;87.71;102520.13;4783840;29;20108;-69
2021/12/16 03:01:48;;;;;;;6.78;3.80;;;;;;;7.24;87.67;102514.94;4792726;29;20057;-69
2021/12/16 03:04:54;;;;;;;10.18;3.50;;;;;;;7.30;87.73;102519.22;4805332;29;20069;-68
2021/12/16 03:07:57;;;;;;;6.50;3.33;;;;;;;7.34;87.51;102520.94;4805410;29;20052;-68
2021/12/16 03:11:32;;;;;;;5.65;3.22;;;;;;;7.34;87.29;102521.81;4794147;29;20119;-68
2021/12/16 03:14:38;;;;;;;7.35;3.20;;;;;;;7.34;87.56;102515.72;4793804;29;20144;-69
2021/12/16 03:17:57;;;;;;;7.18;3.67;;;;;;;7.20;87.88;102513.22;4793862;29;20119;-69
2021/12/16 03:21:12;;;;;;;8.52;3.97;;;;;;;7.26;87.95;102513.19;4804592;29;20137;-68
2021/12/16 03:37:42;;;;;;;9.43;3.63;;;;;;;7.25;87.49;102526.22;4787136;29;20049;-69
2021/12/16 03:40:45;;;;;;;;;;;;;;;7.17;88.30;102521.91;4805150;29;20474;-69
2021/12/16 03:43:50;;;;;;;8.77;3.30;;;;;;;7.20;88.22;102529.69;4793325;29;20407;-69
2021/12/16 03:46:54;;;;;;;8.63;3.28;;;;;;;7.29;88.10;102530.53;4786778;30;20070;-69
2021/12/16 03:49:57;;;;;;;9.55;3.75;;;;;;;7.34;87.56;102520.94;4775625;30;20122;-68
2021/12/16 03:53:04;;;;;;;8.25;3.13;;;;;;;7.14;87.82;102534.06;4786683;30;20141;-68
2021/12/16 03:56:08;;;;;;;9.45;3.70;;;;;;;7.21;87.93;102535.75;4775642;30;20112;-69
2021/12/16 03:59:31;;;;;;;9.73;4.03;;;;;;;7.26;87.68;102535.75;4785768;30;20050;-69
2021/12/16 04:02:49;;;;;;;6.90;3.70;;;;;;;7.29;87.67;102528.78;4785646;30;20054;-69
2021/12/16 04:05:59;;;;;;;17.10;4.22;;;;;;;7.21;88.00;102540.97;4777294;29;20103;-69
2021/12/16 04:09:08;;;;;;;9.05;3.85;;;;;;;7.02;88.45;102526.34;4793359;29;20053;-69
2021/12/16 04:12:19;;;;;;;6.78;3.33;;;;;;;7.05;88.55;102535.03;4793161;29;20421;-69
2021/12/16 04:15:22;;;;;;;10.43;4.20;;;;;;;7.14;88.23;102534.94;4804586;29;20081;-69
2021/12/16 04:18:28;;;;;;;12.77;3.72;;;;;;;6.92;88.85;102533.31;4793425;29;20073;-69
2021/12/16 04:21:31;;;;;;;;;;;;;;;6.92;88.93;102533.31;4793676;29;20074;-69
2021/12/16 04:24:37;;;;;;;15.73;4.47;;;;;;;6.98;88.74;102535.91;4793060;29;19943;-69
2021/12/16 04:27:43;;;;;;;7.35;4.13;;;;;;;7.05;89.17;102540.22;4792306;29;20150;-68
2021/12/16 04:30:49;;;;;;;10.20;4.13;;;;;;;7.15;88.35;102538.44;4793203;29;20054;-69
2021/12/16 04:33:53;;;;;;;9.00;3.38;;;;;;;7.03;88.67;102535.91;4796579;29;20054;-68
2021/12/16 04:37:00;;;;;;;6.85;4.50;;;;;;;7.15;88.32;102535.81;4787962;29;20055;-69
2021/12/16 04:40:08;;;;;;;10.30;4.43;;;;;;;7.20;87.83;102540.09;4789915;30;20050;-68
2021/12/16 04:43:19;;;;;;;10.80;3.85;;;;;;;7.03;88.22;102543.69;4778246;30;20058;-68
2021/12/16 04:46:43;;;;;;;14.38;4.50;;;;;;;6.90;88.63;102553.28;4778386;30;20054;-68
2021/12/16 04:49:47;;;;;;;7.55;3.60;;;;;;;7.00;88.66;102549.78;4785723;29;20050;-68
2021/12/16 04:52:52;;;;;;;9.27;3.95;;;;;;;6.89;88.76;102555.03;4807417;29;20111;-68
2021/12/16 04:55:56;;;;;;;7.78;3.67;;;;;;;6.99;88.82;102553.25;4806439;29;20050;-68
2021/12/16 04:59:08;;;;;;;7.80;3.90;;;;;;;7.08;88.43;102555.78;4795903;29;20054;-68
2021/12/16 05:02:19;;;;;;;10.88;4.75;;;;;;;7.06;88.35;102557.53;4806292;29;20212;-68
2021/12/16 05:06:00;;;;;;;8.18;3.75;;;;;;;7.02;88.08;102561.03;4807262;29;20058;-68
2021/12/16 05:09:06;;;;;;;10.73;4.43;;;;;;;6.90;88.87;102555.91;4796226;29;20058;-68
2021/12/16 05:12:20;;;;;;;13.38;5.50;;;;;;;6.96;88.88;102564.53;4806264;29;20126;-68
2021/12/16 05:15:29;;;;;;;10.70;4.07;;;;;;;6.99;88.74;102563.66;4795896;29;20050;-68
2021/12/16 05:18:37;;;;;;;9.05;4.40;;;;;;;6.69;89.71;102568.09;4803902;29;20161;-68
2021/12/16 05:24:14;;;;;;;11.80;4.65;;;;;;;6.87;89.01;102569.78;4807029;29;20426;-67
2021/12/16 05:25:21;;;;;;;10.18;4.90;;;;;;;6.93;88.88;102572.34;4806852;29;20093;-68
2021/12/16 05:28:26;;;;;;;10.98;5.72;;;;;;;7.04;88.51;102569.69;4807116;29;20065;-68
2021/12/16 05:31:30;;;;;;;12.40;5.07;;;;;;;7.12;88.17;102577.47;4795485;29;20089;-68
2021/12/16 05:34:34;;;;;;;7.90;4.47;;;;;;;6.98;87.91;102580.97;4795181;29;20597;-68
2021/12/16 05:37:39;;;;;;;9.95;4.10;;;;;;;6.86;88.77;102582.75;4795440;29;20143;-68
2021/12/16 05:40:42;;;;;;;;;;;;;;;6.78;88.92;102582.81;4795740;29;20421;-68
2021/12/16 05:43:53;;;;;;;9.93;4.38;;;;;;;6.64;89.26;102584.59;4795029;29;19983;-68
2021/12/16 05:46:57;;;;;;;8.25;3.88;;;;;;;6.69;89.24;102594.09;4806901;29;20057;-68
2021/12/16 05:50:00;;;;;;;11.85;7.55;;;;;;;6.79;89.04;102594.06;4806509;29;20081;-68
2021/12/16 05:53:05;;;;;;;9.38;5.40;;;;;;;6.72;88.89;102588.88;4795093;29;20045;-68
2021/12/16 05:56:09;;;;;;;11.10;5.72;;;;;;;6.79;88.93;102599.25;4779393;29;20120;-68
2021/12/16 05:59:17;;;;;;;11.98;7.30;;;;;;;6.90;88.92;102592.31;4791548;29;20670;-68
2021/12/16 06:02:21;;;;;;;16.38;9.50;;;;;;;6.95;88.53;102590.53;4791369;29;20058;-68
2021/12/16 06:05:26;;;;;;;14.88;8.90;;;;;;;6.99;88.30;102592.28;4799202;29;20054;-68
2021/12/16 06:08:30;;;;;;;15.55;8.25;;;;;;;7.03;88.12;102593.97;4790077;29;20532;-68
2021/12/16 06:11:38;;;;;;;8.95;4.32;;;;;;;6.92;88.08;102595.75;4801353;29;20081;-68
2021/12/16 06:15:14;;;;;;;8.98;5.43;;;;;;;7.06;87.56;102593.09;4802200;29;20046;-68
2021/12/16 06:28:27;;;;;;;10.05;4.70;;;;;;;6.88;88.48;102610.50;4801390;29;20567;-68
2021/12/16 06:31:31;;;;;;;12.73;9.60;;;;;;;6.99;88.15;102618.28;4800074;29;20049;-68
2021/12/16 06:34:35;;;;;;;15.80;10.68;;;;;;;6.98;87.76;102621.72;4802747;29;20227;-67
2021/12/16 06:37:39;;;;;;;21.65;14.07;;;;;;;6.85;88.54;102620.91;4800901;29;20057;-68
2021/12/16 06:40:54;;;;;;;14.80;9.45;;;;;;;6.88;88.26;102620.03;4792946;29;20083;-68
2021/12/16 06:44:31;;;;;;;;;;;;;;;6.81;88.50;102629.59;4801334;29;20049;-67
2021/12/16 06:47:45;;;;;;;17.52;5.03;;;;;;;6.84;88.53;102641.72;4800562;29;19928;-68
2021/12/16 06:50:56;;;;;;;12.93;5.53;;;;;;;6.94;88.35;102643.44;4801109;29;20099;-67
2021/12/16 06:54:04;;;;;;;10.10;5.35;;;;;;;6.95;88.03;102642.53;4802188;29;20254;-67
2021/12/16 07:00:38;;;;;;;10.50;5.70;;;;;;;6.74;87.92;102649.56;4814646;29;20085;-68
2021/12/16 07:03:49;;;;;;;11.38;5.43;;;;;;;6.59;88.00;102657.38;4801101;29;20190;-67
2021/12/16 07:06:52;;;;;;;7.28;5.00;;;;;;;6.61;88.01;102668.66;4800607;29;20057;-67
2021/12/16 07:09:56;;;;;;;7.65;4.70;;;;;;;6.66;87.72;102672.09;4814954;29;20053;-68
2021/12/16 07:13:06;;;;;;;12.65;4.60;;;;;;;6.62;87.92;102674.69;4819548;29;20486;-68
2021/12/16 07:16:12;;;;;;;9.27;4.78;;;;;;;6.67;87.76;102658.25;4819673;29;20138;-67
2021/12/16 07:19:15;;;;;;;11.10;6.15;;;;;;;6.71;87.86;102670.34;4822760;29;20050;-67
2021/12/16 07:22:19;;;;;;;;;;;;;;;6.66;87.33;102674.69;4821733;29;20053;-67
2021/12/16 07:25:23;;;;;;;16.83;4.88;;;;;;;6.47;87.62;102680.78;4823131;29;19981;-67
2021/12/16 07:28:27;;;;;;;11.25;4.60;;;;;;;6.55;87.53;102689.44;4823175;29;20485;-67
2021/12/16 07:31:31;;;;;;;13.70;5.88;;;;;;;6.57;87.70;102677.28;4808002;29;20531;-67
2021/12/16 07:34:34;;;;;;;10.13;4.80;;;;;;;6.64;87.42;102693.78;4804667;29;20045;-67
2021/12/16 07:37:38;;;;;;;9.05;5.28;;;;;;;6.60;87.47;102692.03;4804554;29;20065;-67
2021/12/16 07:40:41;;;;;;;;;;;;;;;6.53;87.60;102691.16;4797351;29;20531;-67
2021/12/16 07:44:09;;;;;;;7.10;4.43;;;;;;;6.52;87.90;102694.66;4804862;29;19971;-67
2021/12/16 07:47:13;;;;;;;12.77;5.05;;;;;;;6.53;88.04;102707.63;4804646;29;20057;-69
2021/12/16 07:50:17;;;;;;;14.10;4.47;;;;;;;6.57;87.52;102698.09;4804645;29;20516;-69
2021/12/16 07:53:25;;;;;;;8.75;5.07;;;;;;;6.68;86.92;102714.56;4794201;29;20050;-68
2021/12/16 07:56:30;;;;;;;8.05;4.78;;;;;;;6.48;86.98;102709.38;4804797;29;20115;-69
2021/12/16 07:59:35;;;;;;;9.77;4.07;;;;;;;6.31;87.87;102708.50;4804771;29;20582;-68
2021/12/16 08:02:39;;;;;;;6.90;4.32;;;;;;;6.39;88.07;102703.31;4769663;29;20139;-67
2021/12/16 08:05:47;;;;;;;14.73;6.97;;;;;;;6.42;88.34;102705.91;4768071;30;20477;-68
2021/12/16 08:08:55;;;;;;;10.13;7.45;;;;;;;6.51;87.61;102718.91;4772534;30;20054;-68
2021/12/16 08:11:58;;;;;;;10.85;8.48;;;;;;;6.37;88.41;102737.06;4772124;30;20066;-68
2021/12/16 08:15:02;;;;;;;;;;;;;;;6.35;88.63;102738.84;4760552;30;20082;-68
2021/12/16 08:18:06;;;;;;;9.25;5.38;;;;;;;6.49;88.26;102731.03;4770385;30;19978;-68
2021/12/16 08:21:09;;;;;;;9.60;5.93;;;;;;;6.53;87.81;102738.81;4768142;30;20123;-68
2021/12/16 08:24:15;;;;;;;20.98;10.93;;;;;;;6.65;87.76;102743.16;4771162;30;20050;-68
2021/12/16 08:27:18;;;;;;;22.83;16.00;;;;;;;6.59;87.68;102748.34;4771481;30;20078;-68
2021/12/16 08:30:25;;;;;;;26.75;16.48;;;;;;;6.64;87.92;102761.38;4772043;30;20059;-68
2021/12/16 08:33:28;;;;;;;47.25;28.77;;;;;;;6.66;87.55;102754.41;4771968;30;20113;-69
2021/12/16 08:36:33;;;;;;;32.42;22.42;;;;;;;6.62;88.00;102758.75;4771798;30;20059;-68
2021/12/16 08:39:38;;;;;;;34.00;20.75;;;;;;;6.79;87.70;102758.72;4771749;30;20054;-68
2021/12/16 08:42:41;;;;;;;17.30;8.95;;;;;;;6.73;88.27;102761.34;4770899;30;20115;-68
2021/12/16 08:45:45;;;;;;;16.00;10.88;;;;;;;6.77;87.99;102772.63;4770869;30;20120;-68
2021/12/16 08:48:50;;;;;;;23.27;11.55;;;;;;;6.92;88.23;102762.19;4771042;30;20518;-68
2021/12/16 08:51:56;;;;;;;22.45;13.20;;;;;;;6.91;88.10;102771.72;4753531;30;20106;-68
2021/12/16 08:55:00;;;;;;;23.02;13.88;;;;;;;7.03;87.46;102773.47;4753649;30;20079;-68
2021/12/16 08:58:04;;;;;;;29.23;12.32;;;;;;;6.96;87.87;102776.94;4753937;30;20078;-68
2021/12/16 09:01:12;;;;;;;21.40;11.05;;;;;;;7.06;88.33;102783.00;4762815;30;20426;-68
2021/12/16 09:04:16;;;;;;;22.23;11.20;;;;;;;7.09;87.61;102780.41;4788724;30;20516;-69
2021/12/16 09:07:19;;;;;;;19.33;10.05;;;;;;;7.09;87.83;102785.59;4796214;29;20203;-68
2021/12/16 09:10:27;;;;;;;;;;;;;;;7.12;88.05;102786.44;4785127;30;20050;-69
2021/12/16 09:13:31;;;;;;;14.13;9.13;;;;;;;7.05;87.91;102789.94;4784509;30;20497;-68
2021/12/16 09:16:35;;;;;;;13.40;7.47;;;;;;;6.81;89.23;102789.94;4784192;30;20639;-68
2021/12/16 09:19:40;;;;;;;19.05;10.02;;;;;;;6.90;89.23;102790.81;4784683;30;20575;-68
2021/12/16 09:22:44;;;;;;;14.52;8.13;;;;;;;7.04;88.69;102793.38;4796562;29;20417;-68
2021/12/16 09:25:49;;;;;;;10.55;6.65;;;;;;;7.13;88.29;102793.38;4806325;29;20088;-69
2021/12/16 09:28:53;;;;;;;12.00;5.93;;;;;;;7.30;87.55;102801.16;4814461;29;20318;-68
2021/12/16 09:31:58;;;;;;;14.90;6.35;;;;;;;7.09;88.04;102796.88;4802015;29;20192;-69
2021/12/16 09:35:03;;;;;;;15.35;6.97;;;;;;;7.12;89.32;102801.19;4801898;29;20046;-69
2021/12/16 09:38:12;;;;;;;11.68;6.68;;;;;;;7.30;88.53;102800.28;4803970;29;20053;-68
2021/12/16 09:41:16;;;;;;;9.93;5.38;;;;;;;7.46;87.78;102796.75;4805911;29;20109;-68
2021/12/16 09:44:21;;;;;;;10.50;5.10;;;;;;;7.62;87.20;102797.59;4805420;29;20054;-68
2021/12/16 09:47:27;;;;;;;12.77;5.35;;;;;;;7.72;87.00;102804.47;4805876;29;20199;-68
2021/12/16 09:50:31;;;;;;;8.65;5.78;;;;;;;7.74;86.49;102800.16;4806543;29;20073;-69
2021/12/16 09:53:37;;;;;;;9.18;5.70;;;;;;;7.83;86.11;102809.66;4806480;29;20516;-69
2021/12/16 09:56:43;;;;;;;8.13;5.25;;;;;;;7.89;86.38;102807.03;4788334;30;20115;-69
2021/12/16 09:59:46;;;;;;;10.65;4.15;;;;;;;7.92;86.37;102799.22;4788418;30;20062;-68
2021/12/16 10:02:52;;;;;;;9.15;6.68;;;;;;;7.99;85.73;102795.69;4788114;30;20119;-69
2021/12/16 10:05:56;;;;;;;18.20;11.18;;;;;;;8.13;85.65;102796.47;4787257;30;20126;-68
2021/12/16 10:09:01;;;;;;;9.45;5.88;;;;;;;8.11;86.03;102790.41;4788305;30;20429;-69
2021/12/16 10:12:11;;;;;;;7.72;5.55;;;;;;;8.12;86.30;102794.75;4797199;29;20077;-69
2021/12/16 10:18:53;;;;;;;9.30;5.13;;;;;;;8.11;86.37;102795.63;4790462;29;20110;-68
2021/12/16 10:22:15;;;;;;;7.43;5.25;;;;;;;8.15;86.29;102793.88;4802038;29;20587;-69
2021/12/16 10:25:26;;;;;;;8.60;5.53;;;;;;;8.31;85.71;102797.25;4800407;29;20057;-68
2021/12/16 10:28:31;;;;;;;10.65;5.65;;;;;;;8.29;85.31;102797.25;4789474;29;20571;-68
2021/12/16 10:31:35;;;;;;;19.17;8.48;;;;;;;8.08;86.09;102790.44;4800896;29;20525;-68
2021/12/16 10:34:38;;;;;;;27.30;12.85;;;;;;;8.11;86.20;102797.38;4802201;29;20045;-68
2021/12/16 10:37:50;;;;;;;16.80;9.50;;;;;;;8.09;85.76;102794.75;4801273;29;20100;-69
2021/12/16 10:40:55;;;;;;;24.38;15.88;;;;;;;8.25;85.71;102784.25;4802085;29;20049;-68
2021/12/16 10:44:05;;;;;;;19.70;13.60;;;;;;;8.40;84.99;102784.19;4801880;29;20049;-68
2021/12/16 10:47:13;;;;;;;14.40;8.90;;;;;;;8.48;84.25;102781.50;4801975;29;20418;-68
2021/12/16 10:50:16;;;;;;;32.00;20.23;;;;;;;8.33;85.41;102782.47;4802186;29;20080;-68
2021/12/16 10:53:38;;;;;;;;;;;;;;;8.23;86.79;102786.88;4801185;29;20098;-68
2021/12/16 10:56:44;;;;;;;32.58;19.05;;;;;;;8.31;86.98;102785.06;4805084;29;20015;-68
2021/12/16 10:59:54;;;;;;;31.83;18.95;;;;;;;8.53;86.00;102796.25;4798626;29;20124;-71
2021/12/16 11:02:58;;;;;;;24.50;14.27;;;;;;;8.66;84.61;102783.97;4771249;30;20413;-68
2021/12/16 11:06:32;;;;;;;20.30;12.50;;;;;;;8.87;83.61;102780.34;4783354;30;20356;-68
2021/12/16 11:09:41;;;;;;;19.88;10.40;;;;;;;8.93;83.35;102780.25;4786424;30;20157;-68
2021/12/16 11:12:54;;;;;;;18.88;12.00;;;;;;;9.03;83.87;102771.47;4786484;30;20058;-68
2021/12/16 11:15:57;;;;;;;12.40;9.60;;;;;;;8.92;83.69;102775.06;4786918;30;20086;-68
2021/12/16 11:19:01;;;;;;;;;;;;;;;9.16;82.90;102782.66;4787488;30;20049;-68
2021/12/16 11:22:05;;;;;;;17.67;11.50;;;;;;;9.22;82.11;102774.78;4786975;30;19925;-68
2021/12/16 11:25:24;;;;;;;17.25;11.60;;;;;;;9.27;82.62;102766.88;4799930;29;20045;-68
2021/12/16 11:28:31;;;;;;;18.35;12.10;;;;;;;9.37;82.77;102763.28;4804443;29;20046;-68
2021/12/16 11:31:34;;;;;;;14.93;10.82;;;;;;;9.43;82.16;102770.19;4804947;29;20049;-68
2021/12/16 11:34:38;;;;;;;;;;;;;;;9.42;81.74;102768.47;4804508;29;20511;-68
2021/12/16 11:37:48;;;;;;;22.73;12.05;;;;;;;9.08;81.44;102756.63;4804999;29;19923;-68
2021/12/16 11:41:00;;;;;;;17.73;11.90;;;;;;;9.19;82.02;102753.03;4804354;29;20441;-68
2021/12/16 11:44:12;;;;;;;18.02;13.65;;;;;;;9.02;82.89;102759.28;4804827;29;20107;-68
2021/12/16 11:47:22;;;;;;;17.40;12.02;;;;;;;9.16;83.47;102753.09;4804785;29;20054;-68
2021/12/16 11:50:37;;;;;;;15.75;11.65;;;;;;;9.08;83.60;102754.00;4804748;29;20050;-68
2021/12/16 11:53:48;;;;;;;18.83;10.45;;;;;;;9.25;83.03;102745.13;4803899;29;20045;-68
2021/12/16 11:57:04;;;;;;;28.38;14.75;;;;;;;9.27;79.74;102741.63;4804417;29;20090;-68
2021/12/16 12:00:21;;;;;;;21.50;15.30;;;;;;;9.40;80.29;102742.34;4804620;29;20050;-68
2021/12/16 12:03:32;;;;;;;24.77;17.20;;;;;;;9.44;78.65;102746.63;4804575;29;20058;-68
2021/12/16 12:06:37;;;;;;;27.95;18.88;;;;;;;9.50;78.45;102745.72;4804398;29;20054;-68
2021/12/16 12:09:48;;;;;;;26.23;17.88;;;;;;;9.53;77.48;102741.31;4804596;29;20074;-68
2021/12/16 12:12:58;;;;;;;25.67;18.65;;;;;;;9.52;77.53;102744.81;4804478;29;20057;-68
2021/12/16 12:16:21;;;;;;;28.55;19.88;;;;;;;9.62;77.07;102749.94;4804466;29;20103;-68
2021/12/16 12:19:24;;;;;;;22.65;17.60;;;;;;;9.47;76.87;102746.59;4804438;29;20053;-68
2021/12/16 12:22:27;;;;;;;24.90;19.13;;;;;;;9.50;76.91;102746.56;4804295;29;20053;-68
2021/12/16 12:25:31;;;;;;;26.25;18.63;;;;;;;9.50;76.89;102750.94;4786528;29;20077;-68
2021/12/16 12:28:34;;;;;;;31.27;18.70;;;;;;;9.49;77.05;102737.00;4786375;29;20062;-68
2021/12/16 12:31:43;;;;;;;25.50;17.73;;;;;;;9.52;77.19;102739.59;4786299;29;20047;-68
2021/12/16 12:34:50;;;;;;;22.50;17.50;;;;;;;9.53;77.26;102741.31;4786198;29;20050;-68
2021/12/16 12:37:57;;;;;;;26.45;18.35;;;;;;;9.54;77.47;102745.66;4786214;29;20054;-68
2021/12/16 12:41:00;;;;;;;27.85;17.70;;;;;;;9.54;77.41;102740.44;4784657;29;20062;-68
2021/12/16 12:44:05;;;;;;;24.83;17.95;;;;;;;9.57;77.59;102743.88;4786264;29;20090;-68
2021/12/16 12:47:13;;;;;;;25.10;18.40;;;;;;;9.67;77.69;102742.91;4786296;29;20514;-68
2021/12/16 12:50:22;;;;;;;22.55;18.10;;;;;;;9.62;77.46;102750.78;4786080;29;20058;-68
2021/12/16 12:53:47;;;;;;;26.00;20.15;;;;;;;9.61;77.58;102756.03;4787356;29;20593;-68
2021/12/16 12:56:52;;;;;;;26.25;18.65;;;;;;;9.50;77.91;102751.78;4789482;30;20485;-69
2021/12/16 12:59:56;;;;;;;24.25;17.25;;;;;;;9.47;78.32;102751.81;4789347;30;20108;-68
2021/12/16 13:03:07;;;;;;;21.27;15.23;;;;;;;9.43;78.42;102750.16;4803608;29;20058;-68
2021/12/16 13:06:14;;;;;;;23.65;17.38;;;;;;;9.53;78.35;102750.91;4807256;29;20143;-68
2021/12/16 13:09:25;;;;;;;69.95;48.33;;;;;;;9.61;78.05;102753.44;4807292;29;20142;-68
2021/12/16 13:12:47;;;;;;;30.88;21.98;;;;;;;9.54;78.54;102752.66;4807176;29;20050;-68
2021/12/16 13:16:17;;;;;;;33.25;23.15;;;;;;;9.55;78.69;102755.22;4807482;29;20113;-68
2021/12/16 13:26:37;;;;;;;27.27;18.52;;;;;;;9.55;78.71;102755.22;4803147;29;20103;-68
2021/12/16 13:30:05;;;;;;;25.23;17.58;;;;;;;9.51;78.73;102750.94;4802601;29;20061;-68
2021/12/16 13:33:26;;;;;;;29.13;18.70;;;;;;;9.54;78.68;102758.72;4802573;29;20134;-68
2021/12/16 13:36:57;;;;;;;23.10;16.65;;;;;;;9.48;78.77;102758.81;4799922;29;20054;-68
2021/12/16 13:40:16;;;;;;;22.85;16.75;;;;;;;9.47;78.63;102757.06;4795581;29;20109;-68
2021/12/16 13:43:29;;;;;;;26.08;16.38;;;;;;;9.50;78.36;102757.00;4784914;30;20066;-68
2021/12/16 13:47:04;;;;;;;24.90;16.07;;;;;;;9.50;78.60;102756.16;4784781;30;20130;-68
2021/12/16 14:07:27;;;;;;;71.57;28.50;;;;;;;9.73;80.68;102769.81;4820328;29;20482;-69
2021/12/16 14:24:14;;;;;;;41.47;22.95;;;;;;;9.74;80.17;102776.75;4800524;29;20073;-68
2021/12/16 14:37:22;;;;;;;;;;;;;;;9.70;83.19;102790.75;4801750;29;20474;-68
2021/12/16 14:41:24;;;;;;;;;;;;;;;;;;;;;
2021/12/16 14:50:33;;;;;;;33.58;22.65;;;;;;;9.68;82.01;102802.97;4822708;29;20141;-68
2021/12/16 14:53:39;;;;;;;33.38;21.25;;;;;;;9.65;82.06;102809.97;4813008;29;20053;-69
2021/12/16 14:56:42;;;;;;;30.95;20.83;;;;;;;9.62;82.63;102810.88;4819353;29;20079;-68
2021/12/16 14:59:46;;;;;;;27.63;16.23;;;;;;;9.56;83.02;102808.31;4819216;29;20053;-69
2021/12/16 15:03:03;;;;;;;29.52;20.55;;;;;;;9.44;82.46;102809.31;4818723;29;20065;-70
2021/12/16 15:06:21;;;;;;;33.75;23.48;;;;;;;9.40;82.25;102812.84;4817691;29;20062;-69
2021/12/16 15:09:31;;;;;;;35.80;23.70;;;;;;;9.40;82.34;102810.25;4819670;29;20049;-68
2021/12/16 15:12:46;;;;;;;35.15;25.10;;;;;;;9.53;82.09;102804.00;4782934;30;20104;-68
2021/12/16 15:16:09;;;;;;;36.17;26.13;;;;;;;9.47;82.56;102809.28;4782839;29;20070;-68
2021/12/16 15:43:08;;;;;;;28.05;18.98;;;;;;;9.54;83.26;102810.97;4799409;29;20070;-68
2021/12/16 15:46:12;;;;;;;31.10;20.85;;;;;;;9.42;83.63;102798.03;4804834;29;20442;-68
2021/12/16 15:49:16;;;;;;;32.13;21.30;;;;;;;9.48;83.62;102800.59;4804153;29;20078;-68
2021/12/16 15:52:20;;;;;;;34.92;21.88;;;;;;;9.43;83.92;102791.94;4803543;29;20122;-69
2021/12/16 15:55:41;;;;;;;35.20;23.38;;;;;;;9.44;83.87;102814.53;4804611;29;20102;-69
2021/12/16 15:58:51;;;;;;;34.10;23.73;;;;;;;9.39;84.15;102789.38;4803982;29;20445;-69
2021/12/16 16:01:56;;;;;;;35.78;21.67;;;;;;;9.38;83.83;102791.13;4801689;29;20065;-69
2021/12/16 16:04:59;;;;;;;34.53;21.10;;;;;;;9.39;83.97;102798.06;4788539;29;20115;-70
2021/12/16 16:08:06;;;;;;;30.27;20.60;;;;;;;9.37;84.30;102810.28;4799564;29;20112;-69
2021/12/16 16:11:12;;;;;;;33.70;19.83;;;;;;;9.19;84.88;102802.63;4797688;29;20097;-69
2021/12/16 16:14:17;;;;;;;34.28;18.98;;;;;;;9.13;85.28;102813.16;4770839;29;20147;-69
2021/12/16 16:17:24;;;;;;;27.83;17.63;;;;;;;9.22;85.36;102818.25;4788851;29;20053;-69
2021/12/16 16:20:32;;;;;;;29.63;19.17;;;;;;;9.22;85.02;102806.09;4457905;29;9999788;-69
2021/12/16 16:23:37;;;;;;;34.30;21.00;;;;;;;9.05;85.75;102816.69;4800202;29;20575;-69
2021/12/16 16:31:29;;;;;;;24.42;17.27;;;;;;;9.08;85.66;102811.44;4757290;30;20128;-69
2021/12/16 16:34:45;;;;;;;26.52;20.63;;;;;;;8.93;86.37;102815.91;4805556;29;20053;-69
2021/12/16 16:37:48;;;;;;;36.45;24.20;;;;;;;8.97;86.43;102813.28;4807658;29;20089;-69
2021/12/16 16:40:53;;;;;;;;;;;;;;;9.04;86.02;102812.34;4808082;29;20058;-69
2021/12/16 16:43:59;;;;;;;44.83;24.85;;;;;;;9.04;86.02;102814.09;4807544;29;19977;-69
2021/12/16 16:47:12;;;;;;;34.58;20.40;;;;;;;9.04;86.20;102814.09;4807643;29;20583;-69
2021/12/16 16:50:17;;;;;;;42.53;23.67;;;;;;;9.11;85.93;102818.38;4807629;29;20053;-69
2021/12/16 16:53:27;;;;;;;45.33;25.10;;;;;;;9.16;85.75;102815.72;4806801;29;20062;-69
2021/12/16 16:56:39;;;;;;;33.78;19.25;;;;;;;9.15;85.61;102808.75;4807456;29;20057;-69
2021/12/16 16:59:42;;;;;;;34.10;19.38;;;;;;;9.04;85.92;102809.72;4802779;29;20133;-69
2021/12/16 17:02:53;;;;;;;;;;;;;;;9.11;85.75;102809.69;4803297;29;20137;-70
2021/12/16 17:06:02;;;;;;;29.55;17.90;;;;;;;9.10;85.84;102802.75;4814767;29;20465;-69
2021/12/16 17:09:06;;;;;;;30.55;19.27;;;;;;;9.07;85.95;102809.72;4821734;29;20472;-69
2021/12/16 17:12:14;;;;;;;27.63;19.23;;;;;;;8.87;86.63;102816.88;4821349;29;20438;-69
2021/12/16 17:15:42;;;;;;;25.88;17.10;;;;;;;8.97;86.53;102813.28;4820641;29;20099;-69
2021/12/16 17:18:49;;;;;;;24.67;16.67;;;;;;;9.07;86.22;102820.16;4794931;29;20548;-69
2021/12/16 17:21:53;;;;;;;37.15;17.92;;;;;;;9.12;85.99;102817.47;4820889;29;20115;-69
2021/12/16 17:24:57;;;;;;;23.83;17.60;;;;;;;9.14;85.84;102820.09;4809958;29;20111;-69
2021/12/16 17:28:02;;;;;;;27.52;17.70;;;;;;;9.13;85.69;102826.19;4807447;29;20111;-69
2021/12/16 17:31:05;;;;;;;27.45;18.33;;;;;;;9.06;85.86;102818.44;4806436;29;20135;-69
2021/12/16 17:34:12;;;;;;;30.40;19.33;;;;;;;8.83;86.88;102825.56;4804909;29;20520;-69
2021/12/16 17:37:22;;;;;;;25.30;17.15;;;;;;;8.92;86.89;102830.72;4805506;29;20081;-69
2021/12/16 17:40:38;;;;;;;29.25;18.60;;;;;;;8.97;86.39;102828.94;4806437;29;20057;-69
2021/12/16 17:43:43;;;;;;;27.80;18.17;;;;;;;8.93;86.42;102832.44;4806664;29;20057;-69
2021/12/16 17:46:54;;;;;;;32.50;17.75;;;;;;;8.75;87.18;102835.22;4806471;29;20597;-69
2021/12/16 17:49:58;;;;;;;26.73;16.27;;;;;;;8.83;86.88;102842.09;4806790;29;20438;-69
2021/12/16 17:53:02;;;;;;;33.60;16.98;;;;;;;8.92;86.52;102846.38;4806466;29;20057;-69
2021/12/16 17:56:07;;;;;;;32.65;18.58;;;;;;;8.92;86.44;102840.28;4806428;29;20045;-69
2021/12/16 17:59:11;;;;;;;22.70;15.68;;;;;;;8.85;86.54;102849.91;4806229;29;20106;-69
2021/12/16 18:02:18;;;;;;;26.33;16.20;;;;;;;8.83;86.87;102851.66;4806219;29;20066;-69
2021/12/16 18:05:24;;;;;;;31.55;18.98;;;;;;;8.87;86.39;102857.72;4806025;29;20127;-69
2021/12/16 18:08:35;;;;;;;26.70;15.52;;;;;;;8.75;86.85;102869.13;4805400;29;20053;-69
2021/12/16 18:11:50;;;;;;;23.77;15.73;;;;;;;8.64;87.42;102870.94;4806171;29;20517;-69
2021/12/16 18:15:31;;;;;;;23.85;15.15;;;;;;;8.78;87.25;102874.31;4794681;29;20082;-69
2021/12/16 18:18:35;;;;;;;28.00;17.88;;;;;;;8.77;87.08;102877.78;4806104;29;20054;-69
2021/12/16 18:21:39;;;;;;;;;;;;;;;8.54;87.95;102870.97;4806453;29;20054;-69
2021/12/16 18:24:52;;;;;;;20.48;14.77;;;;;;;8.69;87.33;102875.25;4804968;29;19943;-69